Time;durP1;ratioP1;P1;durP2;ratioP2;P2;SDS_P1;SDS_P2;PMS_P1;PMS_P2;Temp;Humidity;BMP_temperature;BMP_pressure;BME280_temperature;BME280_humidity;BME280_pressure;Samples;Min_cycle;Max_cycle;Signal;HPM_P1;HPM_P2
2022/10/05 00:00:09;;;;;;;2.72;0.93;;;;;;;;;;5024392;28;20112;-76
2022/10/05 00:02:35;;;;;;;5.03;1.00;;;;;;;;;;5018580;28;20998;-76
2022/10/05 00:05:01;;;;;;;8.13;1.45;;;;;;;;;;5023212;28;20120;-76
2022/10/05 00:07:29;;;;;;;4.95;1.40;;;;;;;;;;5025171;28;20072;-75
2022/10/05 00:09:57;;;;;;;5.93;1.33;;;;;;;;;;5017728;28;20034;-76
2022/10/05 00:12:24;;;;;;;7.05;1.05;;;;;;;;;;5025347;28;20033;-76
2022/10/05 00:14:52;;;;;;;8.52;1.50;;;;;;;;;;5023684;28;20045;-76
2022/10/05 00:17:22;;;;;;;9.43;1.08;;;;;;;;;;5019305;28;20033;-75
2022/10/05 00:19:52;;;;;;;4.75;1.17;;;;;;;;;;5020819;28;20038;-76
2022/10/05 00:22:23;;;;;;;7.25;1.30;;;;;;;;;;5025683;28;20079;-75
2022/10/05 00:24:55;;;;;;;8.40;1.20;;;;;;;;;;5024324;28;20045;-76
2022/10/05 00:27:24;;;;;;;4.32;0.98;;;;;;;;;;5022319;28;20514;-75
2022/10/05 00:29:50;;;;;;;5.70;1.30;;;;;;;;;;5021567;28;20066;-76
2022/10/05 00:32:17;;;;;;;5.78;1.30;;;;;;;;;;5019512;28;20072;-76
2022/10/05 00:34:43;;;;;;;4.82;1.50;;;;;;;;;;5021688;28;20124;-76
2022/10/05 00:37:09;;;;;;;5.13;1.02;;;;;;;;;;5024997;28;20033;-76
2022/10/05 00:39:37;;;;;;;3.35;1.15;;;;;;;;;;5022686;28;20044;-76
2022/10/05 00:42:12;;;;;;;5.38;1.10;;;;;;;;;;5025140;28;20033;-76
2022/10/05 00:44:38;;;;;;;5.95;0.90;;;;;;;;;;5023570;28;20500;-76
2022/10/05 00:47:16;;;;;;;4.18;0.95;;;;;;;;;;5025165;28;20037;-76
2022/10/05 00:49:52;;;;;;;4.80;1.15;;;;;;;;;;5023177;28;20043;-76
2022/10/05 00:52:24;;;;;;;10.15;1.40;;;;;;;;;;5026434;28;20535;-76
2022/10/05 00:54:59;;;;;;;4.30;1.00;;;;;;;;;;5025701;28;20070;-76
2022/10/05 00:57:33;;;;;;;3.67;1.15;;;;;;;;;;5027306;28;20480;-76
2022/10/05 01:00:07;;;;;;;3.45;1.05;;;;;;;;;;5025080;28;20037;-75
2022/10/05 01:02:36;;;;;;;4.72;1.20;;;;;;;;;;5026586;28;20113;-75
2022/10/05 01:05:17;;;;;;;6.85;1.98;;;;;;;;;;5024070;28;20033;-76
2022/10/05 01:07:46;;;;;;;5.07;1.95;;;;;;;;;;5025045;28;20060;-75
2022/10/05 01:10:18;;;;;;;7.43;1.60;;;;;;;;;;5024806;28;20112;-76
2022/10/05 01:12:44;;;;;;;;;;;;;;;;;;5024119;28;20084;-76
2022/10/05 01:15:10;;;;;;;6.55;2.00;;;;;;;;;;5028040;28;20035;-76
2022/10/05 01:17:46;;;;;;;9.10;2.97;;;;;;;;;;5025905;28;20033;-76
2022/10/05 01:20:31;;;;;;;10.65;3.17;;;;;;;;;;5024949;28;20048;-76
2022/10/05 01:23:00;;;;;;;9.43;3.30;;;;;;;;;;5025836;28;20038;-76
2022/10/05 01:25:46;;;;;;;7.82;2.63;;;;;;;;;;5027547;28;20034;-75
2022/10/05 01:28:18;;;;;;;6.35;1.48;;;;;;;;;;4973723;28;20581;-76
2022/10/05 01:31:02;;;;;;;7.18;1.48;;;;;;;;;;5025007;28;20656;-75
2022/10/05 01:33:33;;;;;;;6.47;1.92;;;;;;;;;;5028305;28;20090;-76
2022/10/05 01:36:08;;;;;;;5.20;1.70;;;;;;;;;;5027788;28;20092;-76
2022/10/05 01:38:34;;;;;;;6.82;1.95;;;;;;;;;;5024307;28;20022;-76
2022/10/05 01:41:03;;;;;;;5.07;1.80;;;;;;;;;;5022829;28;20034;-75
2022/10/05 01:43:35;;;;;;;6.78;1.98;;;;;;;;;;5026492;28;20025;-76
2022/10/05 01:46:08;;;;;;;8.43;2.55;;;;;;;;;;5026983;28;20029;-76
2022/10/05 01:48:52;;;;;;;6.40;1.48;;;;;;;;;;5027380;28;20083;-75
2022/10/05 01:51:26;;;;;;;6.85;1.88;;;;;;;;;;5023292;28;20025;-76
2022/10/05 01:53:52;;;;;;;8.20;1.40;;;;;;;;;;5026060;28;20090;-76
2022/10/05 01:56:34;;;;;;;7.47;1.52;;;;;;;;;;5027673;28;20457;-76
2022/10/05 01:59:06;;;;;;;4.97;1.50;;;;;;;;;;5027633;28;20472;-76
2022/10/05 02:01:42;;;;;;;11.90;1.55;;;;;;;;;;5022624;28;20029;-76
2022/10/05 02:04:14;;;;;;;7.22;1.48;;;;;;;;;;5026522;28;20033;-76
2022/10/05 02:06:42;;;;;;;7.57;1.80;;;;;;;;;;5027387;28;20113;-75
2022/10/05 02:09:13;;;;;;;6.18;1.73;;;;;;;;;;5024697;28;20044;-76
2022/10/05 02:11:40;;;;;;;5.05;1.33;;;;;;;;;;5025700;28;20060;-76
2022/10/05 02:14:11;;;;;;;7.15;1.30;;;;;;;;;;5015363;28;20057;-75
2022/10/05 02:16:37;;;;;;;6.20;2.00;;;;;;;;;;5026818;28;20029;-76
2022/10/05 02:19:07;;;;;;;6.97;1.40;;;;;;;;;;5024962;28;20440;-76
2022/10/05 02:21:34;;;;;;;6.32;1.27;;;;;;;;;;5022219;28;20033;-76
2022/10/05 02:24:02;;;;;;;8.20;1.27;;;;;;;;;;5026622;28;20392;-76
2022/10/05 02:26:30;;;;;;;5.35;1.20;;;;;;;;;;5021148;28;20044;-75
2022/10/05 02:28:59;;;;;;;6.32;1.48;;;;;;;;;;5026531;28;20546;-76
2022/10/05 02:31:44;;;;;;;5.35;1.25;;;;;;;;;;5027025;28;20095;-76
2022/10/05 02:34:27;;;;;;;5.38;1.40;;;;;;;;;;5025727;28;20057;-76
2022/10/05 02:37:12;;;;;;;6.35;1.15;;;;;;;;;;5024445;28;20042;-76
2022/10/05 02:39:40;;;;;;;10.05;1.35;;;;;;;;;;5024103;28;20034;-76
2022/10/05 02:42:14;;;;;;;6.70;1.45;;;;;;;;;;5021572;28;20536;-76
2022/10/05 02:44:40;;;;;;;7.30;1.52;;;;;;;;;;5025757;28;20071;-75
2022/10/05 02:47:21;;;;;;;4.53;0.90;;;;;;;;;;5009750;28;20033;-76
2022/10/05 02:49:51;;;;;;;5.57;1.42;;;;;;;;;;5025876;28;20065;-76
2022/10/05 02:52:26;;;;;;;4.55;1.10;;;;;;;;;;5024808;28;20079;-76
2022/10/05 02:55:09;;;;;;;6.82;1.23;;;;;;;;;;5025044;28;20429;-76
2022/10/05 02:57:39;;;;;;;5.05;1.50;;;;;;;;;;5027180;28;20033;-76
2022/10/05 03:00:08;;;;;;;7.57;1.40;;;;;;;;;;5021293;28;20778;-76
2022/10/05 03:02:54;;;;;;;4.10;1.08;;;;;;;;;;5024147;28;20029;-76
2022/10/05 03:05:33;;;;;;;3.75;0.93;;;;;;;;;;5005716;28;20056;-76
2022/10/05 03:08:05;;;;;;;8.63;1.05;;;;;;;;;;5024311;28;20474;-76
2022/10/05 03:10:36;;;;;;;5.57;0.93;;;;;;;;;;5025639;28;20036;-75
2022/10/05 03:13:02;;;;;;;5.20;1.70;;;;;;;;;;5025758;28;20067;-76
2022/10/05 03:15:42;;;;;;;5.05;1.35;;;;;;;;;;5024246;28;20025;-75
2022/10/05 03:18:14;;;;;;;7.93;1.33;;;;;;;;;;5024516;28;20076;-75
2022/10/05 03:20:48;;;;;;;5.45;1.10;;;;;;;;;;5021950;28;20026;-75
2022/10/05 03:23:43;;;;;;;5.85;1.40;;;;;;;;;;5023860;28;20057;-75
2022/10/05 03:26:30;;;;;;;4.22;1.10;;;;;;;;;;4948318;28;20048;-76
2022/10/05 03:28:59;;;;;;;5.95;1.15;;;;;;;;;;5023979;28;20037;-76
2022/10/05 03:31:32;;;;;;;5.55;1.42;;;;;;;;;;5025444;28;20468;-76
2022/10/05 03:34:07;;;;;;;6.35;1.48;;;;;;;;;;5022595;28;20065;-76
2022/10/05 03:36:56;;;;;;;8.32;1.45;;;;;;;;;;5023835;28;20036;-76
2022/10/05 03:39:41;;;;;;;5.90;1.60;;;;;;;;;;5017792;28;20041;-76
2022/10/05 03:42:16;;;;;;;9.00;2.25;;;;;;;;;;5021784;28;20044;-76
2022/10/05 03:44:53;;;;;;;8.38;1.75;;;;;;;;;;5025839;28;20037;-76
2022/10/05 03:47:35;;;;;;;7.13;1.35;;;;;;;;;;5024308;28;20033;-75
2022/10/05 03:50:04;;;;;;;6.40;1.80;;;;;;;;;;5024761;28;20033;-76
2022/10/05 03:52:35;;;;;;;5.40;2.15;;;;;;;;;;5025598;28;20025;-75
2022/10/05 03:55:20;;;;;;;13.15;2.67;;;;;;;;;;5025338;28;20035;-76
2022/10/05 03:57:47;;;;;;;8.07;1.52;;;;;;;;;;5024425;28;20117;-76
2022/10/05 04:00:18;;;;;;;8.55;1.48;;;;;;;;;;5020705;28;20112;-76
2022/10/05 04:03:03;;;;;;;4.25;1.13;;;;;;;;;;5024226;28;20053;-75
2022/10/05 04:05:35;;;;;;;5.72;0.80;;;;;;;;;;5017024;28;20057;-75
2022/10/05 04:08:09;;;;;;;9.55;2.50;;;;;;;;;;5019875;28;20112;-76
2022/10/05 04:10:45;;;;;;;9.27;2.13;;;;;;;;;;5026288;28;20021;-75
2022/10/05 04:13:13;;;;;;;8.63;2.33;;;;;;;;;;5019713;28;20045;-76
2022/10/05 04:15:42;;;;;;;5.65;2.17;;;;;;;;;;5024214;28;20120;-76
2022/10/05 04:18:23;;;;;;;7.18;2.20;;;;;;;;;;5023252;28;20097;-76
2022/10/05 04:20:51;;;;;;;6.57;2.10;;;;;;;;;;5026510;28;20137;-76
2022/10/05 04:23:26;;;;;;;8.70;2.05;;;;;;;;;;5025786;28;20099;-76
2022/10/05 04:25:54;;;;;;;7.03;1.73;;;;;;;;;;5024289;28;20041;-76
2022/10/05 04:28:30;;;;;;;6.38;1.63;;;;;;;;;;5027171;28;20044;-76
2022/10/05 04:30:56;;;;;;;6.43;1.83;;;;;;;;;;5022754;28;20033;-76
2022/10/05 04:33:22;;;;;;;5.47;1.67;;;;;;;;;;5028310;28;20052;-76
2022/10/05 04:35:51;;;;;;;7.65;1.83;;;;;;;;;;5029012;28;20510;-75
2022/10/05 04:38:43;;;;;;;5.55;1.40;;;;;;;;;;5029000;28;20037;-76
2022/10/05 04:41:09;;;;;;;5.93;1.27;;;;;;;;;;5024741;28;20041;-76
2022/10/05 04:43:56;;;;;;;6.93;1.65;;;;;;;;;;5024107;28;20524;-75
2022/10/05 04:46:35;;;;;;;6.93;1.67;;;;;;;;;;5023208;28;20686;-76
2022/10/05 04:49:13;;;;;;;9.27;1.88;;;;;;;;;;5022339;28;20121;-76
2022/10/05 04:51:58;;;;;;;8.77;1.73;;;;;;;;;;5026356;28;20025;-75
2022/10/05 04:54:50;;;;;;;8.88;1.58;;;;;;;;;;5025914;28;20103;-75
2022/10/05 04:57:20;;;;;;;9.18;2.00;;;;;;;;;;5028978;28;20480;-75
2022/10/05 04:59:49;;;;;;;9.52;1.75;;;;;;;;;;5022510;28;20038;-76
2022/10/05 05:02:36;;;;;;;10.85;1.85;;;;;;;;;;5026790;28;20038;-75
2022/10/05 05:05:17;;;;;;;8.27;1.90;;;;;;;;;;5027687;28;20784;-76
2022/10/05 05:07:47;;;;;;;9.25;2.10;;;;;;;;;;5024606;28;20084;-76
2022/10/05 05:10:23;;;;;;;13.30;2.55;;;;;;;;;;5021694;28;20033;-76
2022/10/05 05:13:04;;;;;;;8.95;2.10;;;;;;;;;;5027760;28;20034;-76
2022/10/05 05:15:40;;;;;;;6.25;1.75;;;;;;;;;;5022737;28;20037;-76
2022/10/05 05:18:25;;;;;;;8.70;2.47;;;;;;;;;;5025356;28;20611;-75
2022/10/05 05:20:51;;;;;;;9.77;2.20;;;;;;;;;;5024361;28;20038;-75
2022/10/05 05:23:16;;;;;;;10.13;2.00;;;;;;;;;;5024101;28;20049;-76
2022/10/05 05:25:47;;;;;;;10.00;2.17;;;;;;;;;;5025389;28;20040;-75
2022/10/05 05:28:36;;;;;;;9.77;2.00;;;;;;;;;;5024863;28;20038;-75
2022/10/05 05:31:05;;;;;;;9.30;2.42;;;;;;;;;;5014237;28;20499;-76
2022/10/05 05:33:31;;;;;;;9.98;2.10;;;;;;;;;;5023661;28;21127;-76
2022/10/05 05:36:16;;;;;;;8.93;2.05;;;;;;;;;;5027286;28;20044;-76
2022/10/05 05:38:48;;;;;;;12.02;3.20;;;;;;;;;;5025351;28;20037;-76
2022/10/05 05:41:26;;;;;;;8.30;2.65;;;;;;;;;;5025514;28;20048;-76
2022/10/05 05:44:04;;;;;;;13.10;3.15;;;;;;;;;;5021130;28;20076;-76
2022/10/05 05:46:36;;;;;;;13.65;5.70;;;;;;;;;;5020629;28;20034;-76
2022/10/05 05:49:06;;;;;;;12.23;4.82;;;;;;;;;;5028117;28;20443;-75
2022/10/05 05:51:35;;;;;;;10.55;4.03;;;;;;;;;;5028131;28;20045;-76
2022/10/05 05:54:16;;;;;;;11.75;3.85;;;;;;;;;;5025920;28;20029;-76
2022/10/05 05:56:46;;;;;;;10.75;3.08;;;;;;;;;;5024287;28;20099;-76
2022/10/05 05:59:25;;;;;;;11.43;3.38;;;;;;;;;;5028082;28;20052;-76
2022/10/05 06:01:59;;;;;;;12.57;3.92;;;;;;;;;;5025825;28;20029;-75
2022/10/05 06:04:28;;;;;;;12.82;3.22;;;;;;;;;;5025328;28;20384;-76
2022/10/05 06:06:55;;;;;;;12.32;3.55;;;;;;;;;;5025601;28;20037;-76
2022/10/05 06:09:28;;;;;;;15.63;5.43;;;;;;;;;;5027635;28;20660;-76
2022/10/05 06:12:15;;;;;;;15.10;5.80;;;;;;;;;;5015265;28;20076;-76
2022/10/05 06:14:50;;;;;;;16.50;5.20;;;;;;;;;;5023610;28;20124;-76
2022/10/05 06:17:21;;;;;;;11.77;3.92;;;;;;;;;;5025653;28;20037;-76
2022/10/05 06:19:49;;;;;;;15.80;3.50;;;;;;;;;;5022498;28;20034;-76
2022/10/05 06:22:28;;;;;;;14.20;3.60;;;;;;;;;;5024791;28;20033;-76
2022/10/05 06:24:54;;;;;;;12.55;3.75;;;;;;;;;;5025129;28;20052;-76
2022/10/05 06:27:24;;;;;;;10.50;3.72;;;;;;;;;;5025033;28;20022;-76
2022/10/05 06:30:08;;;;;;;11.23;4.93;;;;;;;;;;5024364;28;20029;-76
2022/10/05 06:32:49;;;;;;;18.98;6.82;;;;;;;;;;5022633;28;20034;-76
2022/10/05 06:35:41;;;;;;;17.30;7.35;;;;;;;;;;5025232;28;20029;-75
2022/10/05 06:38:07;;;;;;;17.98;8.10;;;;;;;;;;5019772;28;20050;-76
2022/10/05 06:40:33;;;;;;;18.50;9.10;;;;;;;;;;5022666;28;20033;-76
2022/10/05 06:43:15;;;;;;;17.33;7.18;;;;;;;;;;5026020;28;20045;-76
2022/10/05 06:45:51;;;;;;;16.58;5.85;;;;;;;;;;5023216;28;20029;-76
2022/10/05 06:48:20;;;;;;;11.75;5.18;;;;;;;;;;5026289;28;20124;-76
2022/10/05 06:50:51;;;;;;;10.85;3.25;;;;;;;;;;5025212;28;20025;-76
2022/10/05 06:53:36;;;;;;;15.63;3.20;;;;;;;;;;5024190;28;20044;-76
2022/10/05 06:56:02;;;;;;;15.55;3.53;;;;;;;;;;5027379;28;20041;-76
2022/10/05 06:58:33;;;;;;;12.85;3.58;;;;;;;;;;5023546;28;20040;-76
2022/10/05 07:01:09;;;;;;;14.98;3.00;;;;;;;;;;5025512;28;20029;-76
2022/10/05 07:03:44;;;;;;;18.55;2.90;;;;;;;;;;5019980;28;20049;-76
2022/10/05 07:06:13;;;;;;;17.00;2.80;;;;;;;;;;5024697;28;20770;-75
2022/10/05 07:08:51;;;;;;;15.05;4.07;;;;;;;;;;5025417;28;20029;-76
2022/10/05 07:11:30;;;;;;;13.65;2.58;;;;;;;;;;5022432;28;20829;-76
2022/10/05 07:14:05;;;;;;;17.75;2.80;;;;;;;;;;5022862;28;20053;-76
2022/10/05 07:16:44;;;;;;;12.85;2.42;;;;;;;;;;5026332;28;20124;-76
2022/10/05 07:19:10;;;;;;;10.50;2.50;;;;;;;;;;5022027;28;20454;-76
2022/10/05 07:21:55;;;;;;;14.75;2.55;;;;;;;;;;5023359;28;20026;-76
2022/10/05 07:24:32;;;;;;;8.50;2.55;;;;;;;;;;5024977;28;20471;-76
2022/10/05 07:27:01;;;;;;;12.23;2.45;;;;;;;;;;5022668;28;20152;-75
2022/10/05 07:29:33;;;;;;;8.50;2.42;;;;;;;;;;5025795;28;20049;-76
2022/10/05 07:32:17;;;;;;;11.50;2.33;;;;;;;;;;5024163;28;20025;-76
2022/10/05 07:34:52;;;;;;;13.73;2.95;;;;;;;;;;5025663;28;20040;-76
2022/10/05 07:40:09;;;;;;;12.32;2.50;;;;;;;;;;5026612;28;20061;-76
2022/10/05 07:42:37;;;;;;;;;;;;;;;;;;5024390;28;20029;-76
2022/10/05 07:45:25;;;;;;;8.88;2.38;;;;;;;;;;5025422;28;19959;-76
2022/10/05 07:47:53;;;;;;;13.80;2.90;;;;;;;;;;5024118;28;20037;-76
2022/10/05 07:50:26;;;;;;;5.82;2.20;;;;;;;;;;5026706;28;20112;-76
2022/10/05 07:53:02;;;;;;;8.35;1.98;;;;;;;;;;5025456;28;20040;-76
2022/10/05 07:55:34;;;;;;;9.85;1.83;;;;;;;;;;5025948;28;20029;-76
2022/10/05 07:58:29;;;;;;;8.77;2.00;;;;;;;;;;5025580;28;20111;-76
2022/10/05 08:00:55;;;;;;;10.95;2.10;;;;;;;;;;5003325;28;20052;-76
2022/10/05 08:03:59;;;;;;;11.38;2.40;;;;;;;;;;5027030;28;20041;-76
2022/10/05 08:06:26;;;;;;;9.80;2.20;;;;;;;;;;4930541;29;20040;-76
2022/10/05 08:08:58;;;;;;;7.05;2.00;;;;;;;;;;4929783;28;20056;-76
2022/10/05 08:11:28;;;;;;;9.07;1.90;;;;;;;;;;4976665;28;20379;-76
2022/10/05 08:14:01;;;;;;;9.40;1.60;;;;;;;;;;5029537;28;20053;-76
2022/10/05 08:16:29;;;;;;;6.22;1.25;;;;;;;;;;5027188;28;20026;-76
2022/10/05 08:19:14;;;;;;;3.42;0.90;;;;;;;;;;5028022;28;20069;-76
2022/10/05 08:21:44;;;;;;;6.28;0.93;;;;;;;;;;5027409;28;20041;-76
2022/10/05 08:24:13;;;;;;;7.43;1.63;;;;;;;;;;5030771;28;20045;-76
2022/10/05 08:26:42;;;;;;;11.10;2.58;;;;;;;;;;5028718;28;20568;-77
2022/10/05 08:29:15;;;;;;;6.53;1.40;;;;;;;;;;5030165;28;20834;-77
2022/10/05 08:31:43;;;;;;;8.73;1.65;;;;;;;;;;5029842;28;20025;-76
2022/10/05 08:34:14;;;;;;;4.35;1.17;;;;;;;;;;5024939;28;20076;-76
2022/10/05 08:36:46;;;;;;;6.50;1.63;;;;;;;;;;5026369;28;20457;-76
2022/10/05 08:39:12;;;;;;;;;;;;;;;;;;5026216;28;20037;-77
2022/10/05 08:41:57;;;;;;;4.43;1.25;;;;;;;;;;5029939;28;19920;-77
2022/10/05 08:44:35;;;;;;;6.10;1.30;;;;;;;;;;5022782;28;20048;-77
2022/10/05 08:47:16;;;;;;;5.68;0.80;;;;;;;;;;5028028;28;20037;-77
2022/10/05 08:50:01;;;;;;;6.07;1.08;;;;;;;;;;5027182;28;20354;-77
2022/10/05 08:52:28;;;;;;;11.13;1.13;;;;;;;;;;5026733;28;20025;-77
2022/10/05 08:55:09;;;;;;;6.50;1.00;;;;;;;;;;5030218;28;20040;-77
2022/10/05 08:57:54;;;;;;;8.65;0.77;;;;;;;;;;5026095;28;20029;-77
2022/10/05 09:00:22;;;;;;;6.53;0.90;;;;;;;;;;5027489;28;20037;-77
2022/10/05 09:02:57;;;;;;;6.28;1.15;;;;;;;;;;5029586;28;20578;-76
2022/10/05 09:05:29;;;;;;;5.80;1.20;;;;;;;;;;5027780;28;20029;-77
2022/10/05 09:08:09;;;;;;;7.03;1.23;;;;;;;;;;5029369;28;20079;-77
2022/10/05 09:10:54;;;;;;;6.55;1.30;;;;;;;;;;5025286;28;20029;-77
2022/10/05 09:13:30;;;;;;;9.65;1.08;;;;;;;;;;5022626;28;20049;-77
2022/10/05 09:15:56;;;;;;;6.45;2.00;;;;;;;;;;5029119;28;20029;-77
2022/10/05 09:18:41;;;;;;;3.20;1.20;;;;;;;;;;5027409;28;20045;-77
2022/10/05 09:21:25;;;;;;;4.25;1.10;;;;;;;;;;5029442;28;20040;-77
2022/10/05 09:24:14;;;;;;;7.38;1.45;;;;;;;;;;5029570;28;20148;-77
2022/10/05 09:26:40;;;;;;;5.43;1.23;;;;;;;;;;5015831;28;20067;-77
2022/10/05 09:29:28;;;;;;;4.63;1.15;;;;;;;;;;5027838;28;20036;-77
2022/10/05 09:32:07;;;;;;;7.20;1.40;;;;;;;;;;5027708;28;20120;-77
2022/10/05 09:34:52;;;;;;;6.68;1.30;;;;;;;;;;5025785;28;20116;-78
2022/10/05 09:37:35;;;;;;;5.80;0.88;;;;;;;;;;5023409;28;20064;-77
2022/10/05 09:40:07;;;;;;;6.25;1.20;;;;;;;;;;5027317;28;20040;-77
2022/10/05 09:42:48;;;;;;;2.95;0.93;;;;;;;;;;5026531;28;20025;-77
2022/10/05 09:45:23;;;;;;;2.33;0.77;;;;;;;;;;5028016;28;20029;-77
2022/10/05 09:47:49;;;;;;;3.80;0.70;;;;;;;;;;5007375;28;20323;-77
2022/10/05 09:50:34;;;;;;;3.60;0.50;;;;;;;;;;5024567;28;20546;-77
2022/10/05 09:53:00;;;;;;;4.15;0.90;;;;;;;;;;5023658;28;20830;-78
2022/10/05 09:55:41;;;;;;;2.65;0.70;;;;;;;;;;5025268;28;20117;-77
2022/10/05 09:58:28;;;;;;;7.57;1.10;;;;;;;;;;5023633;28;20038;-77
2022/10/05 10:01:09;;;;;;;7.75;1.38;;;;;;;;;;5027772;28;20399;-77
2022/10/05 10:03:44;;;;;;;7.97;1.20;;;;;;;;;;5024981;28;20043;-78
2022/10/05 10:06:19;;;;;;;11.38;1.20;;;;;;;;;;5024427;28;20041;-77
2022/10/05 10:09:01;;;;;;;6.28;1.17;;;;;;;;;;5025216;28;20040;-77
2022/10/05 10:11:27;;;;;;;4.57;0.70;;;;;;;;;;5023771;28;20571;-77
2022/10/05 10:13:59;;;;;;;7.60;0.90;;;;;;;;;;5022581;28;20066;-77
2022/10/05 10:16:25;;;;;;;;;;;;;;;;;;5028408;28;20030;-77
2022/10/05 10:18:54;;;;;;;5.03;0.80;;;;;;;;;;5026158;28;20508;-77
2022/10/05 10:21:28;;;;;;;4.00;0.80;;;;;;;;;;5023360;28;20468;-77
2022/10/05 10:24:12;;;;;;;3.40;0.77;;;;;;;;;;5025321;28;20059;-77
2022/10/05 10:26:38;;;;;;;5.15;0.85;;;;;;;;;;5024905;28;20477;-78
2022/10/05 10:29:23;;;;;;;7.15;1.00;;;;;;;;;;5027227;28;20037;-77
2022/10/05 10:31:49;;;;;;;7.35;0.73;;;;;;;;;;5021190;28;20026;-78
2022/10/05 10:34:15;;;;;;;6.47;1.02;;;;;;;;;;5027451;28;20038;-78
2022/10/05 10:37:00;;;;;;;5.22;0.85;;;;;;;;;;5026600;28;20564;-78
2022/10/05 10:39:26;;;;;;;2.33;0.50;;;;;;;;;;5025122;28;20654;-77
2022/10/05 10:42:00;;;;;;;6.15;0.52;;;;;;;;;;5026820;28;20061;-77
2022/10/05 10:44:36;;;;;;;2.90;0.50;;;;;;;;;;5027014;28;20053;-78
2022/10/05 10:47:05;;;;;;;1.58;0.55;;;;;;;;;;5025568;28;20796;-77
2022/10/05 10:49:31;;;;;;;1.70;0.57;;;;;;;;;;5026199;28;20029;-77
2022/10/05 10:52:09;;;;;;;3.92;0.50;;;;;;;;;;5026771;28;20037;-78
2022/10/05 10:54:47;;;;;;;2.60;0.82;;;;;;;;;;5028133;28;20045;-78
2022/10/05 10:57:21;;;;;;;1.50;0.38;;;;;;;;;;5026413;28;20409;-78
2022/10/05 10:59:47;;;;;;;1.92;0.40;;;;;;;;;;5026878;28;20125;-77
2022/10/05 11:02:13;;;;;;;2.90;0.45;;;;;;;;;;5026349;28;20124;-77
2022/10/05 11:04:39;;;;;;;5.00;0.70;;;;;;;;;;5024553;28;20087;-78
2022/10/05 11:07:23;;;;;;;2.28;0.63;;;;;;;;;;5026826;28;20036;-77
2022/10/05 11:09:58;;;;;;;5.15;0.82;;;;;;;;;;5025158;28;20044;-78
2022/10/05 11:12:43;;;;;;;2.83;0.70;;;;;;;;;;5026268;28;20025;-77
2022/10/05 11:15:36;;;;;;;4.35;1.10;;;;;;;;;;5023544;28;20045;-77
2022/10/05 11:18:08;;;;;;;8.25;0.88;;;;;;;;;;4994529;28;20100;-78
2022/10/05 11:20:54;;;;;;;4.72;0.90;;;;;;;;;;5023335;28;20037;-78
2022/10/05 11:23:20;;;;;;;4.38;0.57;;;;;;;;;;5023206;28;20033;-77
2022/10/05 11:25:55;;;;;;;3.28;0.80;;;;;;;;;;5026483;28;20810;-77
2022/10/05 11:28:30;;;;;;;5.50;0.65;;;;;;;;;;5023556;28;20033;-77
2022/10/05 11:31:15;;;;;;;6.75;0.70;;;;;;;;;;5023178;28;20376;-77
2022/10/05 11:33:44;;;;;;;3.35;0.77;;;;;;;;;;5025641;28;20195;-77
2022/10/05 11:36:10;;;;;;;5.32;0.50;;;;;;;;;;5024557;28;20113;-77
2022/10/05 11:38:52;;;;;;;3.97;0.70;;;;;;;;;;5023477;28;20129;-77
2022/10/05 11:41:36;;;;;;;4.00;0.80;;;;;;;;;;5024630;28;20041;-77
2022/10/05 11:44:21;;;;;;;2.30;0.70;;;;;;;;;;5025646;28;20092;-76
2022/10/05 11:46:53;;;;;;;6.43;0.70;;;;;;;;;;5026234;28;20044;-77
2022/10/05 11:49:25;;;;;;;4.03;0.73;;;;;;;;;;5025358;28;20071;-76
2022/10/05 11:51:57;;;;;;;5.55;0.70;;;;;;;;;;5022783;28;20857;-77
2022/10/05 11:54:26;;;;;;;3.95;0.85;;;;;;;;;;5025250;28;20034;-77
2022/10/05 11:56:59;;;;;;;4.80;0.60;;;;;;;;;;5023750;28;20029;-76
2022/10/05 11:59:33;;;;;;;3.20;0.70;;;;;;;;;;5021880;28;20042;-76
2022/10/05 12:02:13;;;;;;;2.53;0.52;;;;;;;;;;5024101;28;20053;-76
2022/10/05 12:04:52;;;;;;;2.85;0.60;;;;;;;;;;5021471;28;20469;-76
2022/10/05 12:07:38;;;;;;;2.53;0.60;;;;;;;;;;5022837;28;20072;-76
2022/10/05 12:10:31;;;;;;;3.13;0.43;;;;;;;;;;5022281;28;20117;-76
2022/10/05 12:13:00;;;;;;;2.25;0.50;;;;;;;;;;5020683;28;20025;-76
2022/10/05 12:15:29;;;;;;;4.00;0.60;;;;;;;;;;5020323;28;20042;-76
2022/10/05 12:18:25;;;;;;;2.95;0.90;;;;;;;;;;5025147;28;20622;-76
2022/10/05 12:21:06;;;;;;;3.45;0.70;;;;;;;;;;5006034;28;20045;-76
2022/10/05 12:23:39;;;;;;;5.03;0.77;;;;;;;;;;5023527;28;20476;-76
2022/10/05 12:26:09;;;;;;;4.57;0.60;;;;;;;;;;5023561;28;20037;-76
2022/10/05 12:28:46;;;;;;;5.10;0.60;;;;;;;;;;5023479;28;20700;-76
2022/10/05 12:31:20;;;;;;;5.75;0.55;;;;;;;;;;5022908;28;20037;-76
2022/10/05 12:33:49;;;;;;;4.65;0.60;;;;;;;;;;5023971;28;20029;-77
2022/10/05 12:36:21;;;;;;;1.38;0.60;;;;;;;;;;5022049;28;20072;-76
2022/10/05 12:38:53;;;;;;;1.05;0.40;;;;;;;;;;5024416;28;20033;-76
2022/10/05 12:41:19;;;;;;;2.03;0.55;;;;;;;;;;5021495;28;20049;-76
2022/10/05 12:44:03;;;;;;;2.17;0.70;;;;;;;;;;5025595;28;20037;-76
2022/10/05 12:46:29;;;;;;;3.05;0.60;;;;;;;;;;5020759;28;20039;-76
2022/10/05 12:49:14;;;;;;;1.95;0.70;;;;;;;;;;5028695;28;20037;-77
2022/10/05 12:51:40;;;;;;;2.97;0.68;;;;;;;;;;5026505;28;20135;-77
2022/10/05 12:54:06;;;;;;;1.70;0.50;;;;;;;;;;5028426;28;20818;-77
2022/10/05 12:56:42;;;;;;;1.90;0.55;;;;;;;;;;5022817;28;20064;-76
2022/10/05 12:59:13;;;;;;;5.97;0.80;;;;;;;;;;5026445;28;20030;-76
2022/10/05 13:01:53;;;;;;;3.90;0.90;;;;;;;;;;5027676;28;20073;-76
2022/10/05 13:04:25;;;;;;;4.35;0.70;;;;;;;;;;5026072;28;20041;-76
2022/10/05 13:07:04;;;;;;;3.90;0.60;;;;;;;;;;5025582;28;20038;-77
2022/10/05 13:09:38;;;;;;;4.30;0.95;;;;;;;;;;5027144;28;20033;-76
2022/10/05 13:12:11;;;;;;;3.92;0.63;;;;;;;;;;5026598;28;20038;-77
2022/10/05 13:14:46;;;;;;;2.70;0.80;;;;;;;;;;5025597;28;20050;-76
2022/10/05 13:17:17;;;;;;;3.92;0.90;;;;;;;;;;5026576;28;20051;-77
2022/10/05 13:19:45;;;;;;;4.63;0.70;;;;;;;;;;5027492;28;20037;-76
2022/10/05 13:22:31;;;;;;;4.97;0.70;;;;;;;;;;5027167;28;20275;-77
2022/10/05 13:25:03;;;;;;;2.95;0.88;;;;;;;;;;5028606;28;20156;-76
2022/10/05 13:27:31;;;;;;;2.40;0.75;;;;;;;;;;5026878;28;20052;-76
2022/10/05 13:30:12;;;;;;;5.32;0.95;;;;;;;;;;5026075;28;20029;-76
2022/10/05 13:32:41;;;;;;;4.10;0.60;;;;;;;;;;5024765;28;20036;-76
2022/10/05 13:35:39;;;;;;;4.20;0.65;;;;;;;;;;5026151;28;20271;-76
2022/10/05 13:38:18;;;;;;;5.63;0.70;;;;;;;;;;5023535;28;20080;-76
2022/10/05 13:41:03;;;;;;;3.67;0.75;;;;;;;;;;5025226;28;20041;-76
2022/10/05 13:43:48;;;;;;;4.78;0.75;;;;;;;;;;5026304;28;20037;-76
2022/10/05 13:46:23;;;;;;;3.20;0.70;;;;;;;;;;5021736;28;20085;-76
2022/10/05 13:48:55;;;;;;;1.92;0.70;;;;;;;;;;5023276;28;20069;-76
2022/10/05 13:51:28;;;;;;;6.47;0.80;;;;;;;;;;5026552;28;20033;-76
2022/10/05 13:54:06;;;;;;;3.33;0.60;;;;;;;;;;5024575;28;20465;-76
2022/10/05 13:56:33;;;;;;;5.60;0.93;;;;;;;;;;5025168;28;20029;-77
2022/10/05 13:59:18;;;;;;;5.07;0.60;;;;;;;;;;5026997;28;20614;-76
2022/10/05 14:01:47;;;;;;;3.10;0.60;;;;;;;;;;5024971;28;20040;-76
2022/10/05 14:04:24;;;;;;;4.72;0.70;;;;;;;;;;5026622;28;20060;-76
2022/10/05 14:06:51;;;;;;;1.23;0.60;;;;;;;;;;5024916;28;20040;-76
2022/10/05 14:09:20;;;;;;;4.10;0.60;;;;;;;;;;5026917;28;20091;-76
2022/10/05 14:11:48;;;;;;;3.65;0.80;;;;;;;;;;5023670;28;20034;-76
2022/10/05 14:14:27;;;;;;;2.05;0.60;;;;;;;;;;5022385;28;20080;-77
2022/10/05 14:16:57;;;;;;;3.25;0.60;;;;;;;;;;5025028;28;20059;-76
2022/10/05 14:19:23;;;;;;;4.53;0.70;;;;;;;;;;5024798;28;20140;-76
2022/10/05 14:21:54;;;;;;;3.17;0.55;;;;;;;;;;5025901;28;20551;-77
2022/10/05 14:24:30;;;;;;;5.93;0.90;;;;;;;;;;5025828;28;20117;-77
2022/10/05 14:26:57;;;;;;;2.15;0.70;;;;;;;;;;5025984;28;20033;-77
2022/10/05 14:29:24;;;;;;;2.08;0.65;;;;;;;;;;5025610;28;20460;-76
2022/10/05 14:31:54;;;;;;;2.40;0.50;;;;;;;;;;5024265;28;20075;-76
2022/10/05 14:34:27;;;;;;;2.63;0.88;;;;;;;;;;5025676;28;20036;-76
2022/10/05 14:37:19;;;;;;;6.30;0.60;;;;;;;;;;5024142;28;20075;-76
2022/10/05 14:39:47;;;;;;;3.58;0.88;;;;;;;;;;4992768;28;20049;-77
2022/10/05 14:42:14;;;;;;;2.30;0.70;;;;;;;;;;5024789;28;20061;-76
2022/10/05 14:44:40;;;;;;;6.72;0.93;;;;;;;;;;5023696;28;20029;-76
2022/10/05 14:47:23;;;;;;;7.88;1.77;;;;;;;;;;5025128;28;20048;-77
2022/10/05 14:50:09;;;;;;;3.78;1.33;;;;;;;;;;5026636;28;20030;-76
2022/10/05 14:52:36;;;;;;;3.53;0.90;;;;;;;;;;5025402;28;20040;-77
2022/10/05 14:55:08;;;;;;;3.40;0.70;;;;;;;;;;5023559;28;20155;-76
2022/10/05 14:57:43;;;;;;;5.45;1.25;;;;;;;;;;5020202;28;20120;-76
2022/10/05 15:00:10;;;;;;;1.73;0.60;;;;;;;;;;5023481;28;20036;-76
2022/10/05 15:02:41;;;;;;;4.38;0.73;;;;;;;;;;5025716;28;20028;-77
2022/10/05 15:05:19;;;;;;;4.60;0.80;;;;;;;;;;5024987;28;20030;-76
2022/10/05 15:07:48;;;;;;;1.95;0.70;;;;;;;;;;5022646;28;20040;-76
2022/10/05 15:10:25;;;;;;;3.22;0.80;;;;;;;;;;5024273;28;20030;-76
2022/10/05 15:12:54;;;;;;;2.95;1.02;;;;;;;;;;5024979;28;20441;-76
2022/10/05 15:15:26;;;;;;;3.92;1.10;;;;;;;;;;5024512;28;20064;-77
2022/10/05 15:17:59;;;;;;;6.85;1.17;;;;;;;;;;5024233;28;20061;-76
2022/10/05 15:20:34;;;;;;;3.05;0.82;;;;;;;;;;5025573;28;20073;-77
2022/10/05 15:23:23;;;;;;;9.32;1.10;;;;;;;;;;5023590;28;20033;-76
2022/10/05 15:25:55;;;;;;;4.53;0.90;;;;;;;;;;5024027;28;20492;-76
2022/10/05 15:28:33;;;;;;;4.47;0.95;;;;;;;;;;5023147;28;20474;-76